Time;durP1;ratioP1;P1;durP2;ratioP2;P2;SDS_P1;SDS_P2;PMS_P1;PMS_P2;Temp;Humidity;BMP_temperature;BMP_pressure;BME280_temperature;BME280_humidity;BME280_pressure;Samples;Min_cycle;Max_cycle;Signal;HPM_P1;HPM_P2
2022/06/14 00:04:17;;;;;;;0.20;0.10;;;23.70;99.90;;;;;;21142555;28;20250;-75
2022/06/14 00:14:22;;;;;;;0.20;0.00;;;23.50;99.90;;;;;;21143527;28;20255;-74
2022/06/14 00:24:26;;;;;;;0.20;0.00;;;23.50;99.90;;;;;;21142214;28;20208;-75
2022/06/14 00:34:31;;;;;;;0.20;0.00;;;23.70;99.90;;;;;;21170810;28;20766;-75
2022/06/14 00:44:35;;;;;;;0.20;0.10;;;23.40;99.90;;;;;;21223572;28;20225;-77
2022/06/14 00:54:42;;;;;;;0.20;0.00;;;23.20;99.90;;;;;;21226279;28;20287;-75
2022/06/14 01:04:47;;;;;;;0.20;0.00;;;23.20;99.90;;;;;;21224709;28;20235;-75
2022/06/14 01:15:00;;;;;;;0.20;0.00;;;23.10;99.90;;;;;;21229125;28;20290;-75
2022/06/14 01:25:07;;;;;;;0.20;0.00;;;23.00;99.90;;;;;;21240524;28;20195;-75
2022/06/14 01:35:17;;;;;;;0.20;0.00;;;23.10;99.90;;;;;;21205004;28;20241;-76
2022/06/14 01:45:32;;;;;;;0.20;0.00;;;23.10;99.90;;;;;;21154102;28;20216;-75
2022/06/14 01:55:43;;;;;;;0.20;0.00;;;23.20;99.90;;;;;;21155910;28;20222;-75
2022/06/14 02:05:55;;;;;;;0.20;0.00;;;23.10;99.90;;;;;;21154604;28;20296;-74
2022/06/14 02:16:08;;;;;;;0.20;0.00;;;22.90;99.90;;;;;;21151465;28;20232;-75
2022/06/14 02:26:18;;;;;;;0.20;0.00;;;22.90;99.90;;;;;;21150336;28;20208;-76
2022/06/14 02:36:26;;;;;;;0.20;0.00;;;22.90;99.90;;;;;;21151111;28;20214;-75
2022/06/14 02:46:37;;;;;;;0.20;0.00;;;22.90;99.90;;;;;;21149910;28;20215;-76
2022/06/14 02:56:47;;;;;;;0.20;0.10;;;22.80;99.90;;;;;;21148227;28;20238;-74
2022/06/14 03:06:58;;;;;;;0.20;0.00;;;22.70;99.90;;;;;;21149333;28;20243;-74
2022/06/14 03:17:15;;;;;;;0.20;0.00;;;22.60;99.90;;;;;;21147467;28;20283;-74
2022/06/14 03:27:27;;;;;;;0.20;0.00;;;22.50;99.90;;;;;;21148054;28;20203;-78
2022/06/14 03:37:32;;;;;;;0.20;0.07;;;22.80;99.90;;;;;;21199103;28;20214;-76
2022/06/14 03:47:37;;;;;;;0.20;0.00;;;22.70;99.90;;;;;;21230519;28;20211;-76
2022/06/14 03:57:54;;;;;;;0.20;0.00;;;22.70;99.90;;;;;;21228136;28;20283;-74
2022/06/14 04:08:10;;;;;;;0.20;0.00;;;22.90;99.90;;;;;;21226902;28;20215;-76
2022/06/14 04:18:39;;;;;;;0.20;0.00;;;22.60;99.90;;;;;;21224759;28;20229;-74
2022/06/14 04:28:53;;;;;;;0.20;0.00;;;22.30;99.90;;;;;;21226877;28;20191;-73
2022/06/14 04:39:00;;;;;;;0.20;0.00;;;22.30;99.90;;;;;;21156718;28;20283;-73
2022/06/14 04:49:12;;;;;;;0.20;0.00;;;22.60;99.90;;;;;;21139420;28;20215;-75
2022/06/14 04:59:20;;;;;;;0.20;0.10;;;23.40;99.90;;;;;;21171455;28;20226;-75
2022/06/14 05:09:29;;;;;;;0.20;0.00;;;23.80;99.90;;;;;;21219700;28;20330;-75
2022/06/14 05:19:42;;;;;;;0.20;0.00;;;23.80;99.90;;;;;;21221409;28;20279;-76
2022/06/14 05:29:57;;;;;;;0.20;0.00;;;24.10;99.90;;;;;;21219095;28;20222;-75
2022/06/14 05:40:11;;;;;;;0.20;0.00;;;24.40;99.90;;;;;;21219174;28;20282;-74
2022/06/14 05:50:22;;;;;;;0.20;0.00;;;24.50;99.90;;;;;;21220118;28;20267;-74
2022/06/14 06:00:30;;;;;;;0.20;0.00;;;24.70;99.90;;;;;;21217957;28;20381;-72
2022/06/14 06:10:39;;;;;;;0.20;0.00;;;24.80;99.90;;;;;;21210186;28;20207;-74
2022/06/14 06:20:50;;;;;;;0.20;0.00;;;24.90;99.90;;;;;;21233296;27;20235;-73
2022/06/14 06:31:01;;;;;;;0.20;0.00;;;25.10;99.90;;;;;;21230156;28;20221;-74
2022/06/14 06:51:40;;;;;;;0.20;0.00;;;24.80;99.90;;;;;;21227261;28;20251;-73
2022/06/14 07:01:46;;;;;;;0.20;0.00;;;25.30;99.90;;;;;;21228119;27;20246;-74
2022/06/14 07:11:55;;;;;;;0.20;0.00;;;25.20;99.90;;;;;;21227562;28;20202;-73
2022/06/14 07:22:06;;;;;;;0.20;0.00;;;25.90;99.90;;;;;;21225050;28;20305;-75
2022/06/14 07:32:17;;;;;;;0.20;0.00;;;27.00;99.90;;;;;;21226108;27;20206;-73
2022/06/14 07:42:37;;;;;;;0.20;0.10;;;27.40;99.90;;;;;;21224543;28;20213;-73
2022/06/14 07:52:47;;;;;;;0.20;0.00;;;26.70;99.90;;;;;;21224667;28;20241;-68
2022/06/14 08:02:55;;;;;;;0.20;0.00;;;26.40;99.90;;;;;;21225092;28;20212;-71
2022/06/14 08:13:06;;;;;;;0.20;0.00;;;26.20;99.90;;;;;;21214560;28;20223;-72
2022/06/14 08:23:14;;;;;;;0.20;0.00;;;26.30;99.90;;;;;;21160787;28;20219;-72
2022/06/14 08:33:23;;;;;;;0.20;0.00;;;26.30;99.90;;;;;;21139184;28;20250;-72
2022/06/14 08:43:32;;;;;;;0.20;0.10;;;26.80;99.90;;;;;;21154511;28;20267;-73
2022/06/14 08:54:04;;;;;;;0.20;0.00;;;26.80;99.90;;;;;;21210709;28;20223;-71
2022/06/14 09:04:33;;;;;;;0.20;0.00;;;26.80;99.90;;;;;;21209264;28;20223;-74
2022/06/14 09:15:16;;;;;;;0.20;0.00;;;26.20;99.90;;;;;;21206718;28;20250;-73
2022/06/14 09:25:41;;;;;;;0.20;0.00;;;26.50;99.90;;;;;;21208829;28;20187;-73
2022/06/14 09:36:29;;;;;;;0.20;0.00;;;26.90;99.90;;;;;;21213404;28;20242;-74
2022/06/14 09:47:14;;;;;;;0.20;0.00;;;27.00;99.90;;;;;;21228037;28;20211;-73
2022/06/14 09:57:31;;;;;;;0.20;0.00;;;26.90;99.90;;;;;;21227333;28;20245;-73
2022/06/14 10:07:56;;;;;;;0.20;0.00;;;27.20;99.90;;;;;;21225013;28;20231;-73
2022/06/14 10:18:22;;;;;;;0.20;0.10;;;27.60;99.90;;;;;;21219172;28;20287;-75
2022/06/14 10:28:41;;;;;;;0.20;0.00;;;27.80;99.90;;;;;;21179605;28;20252;-72
2022/06/14 10:39:24;;;;;;;0.20;0.00;;;27.80;99.90;;;;;;21157805;28;20235;-75
2022/06/14 10:50:06;;;;;;;0.20;0.00;;;28.20;99.90;;;;;;21134540;28;20255;-75
2022/06/14 11:00:17;;;;;;;0.20;0.00;;;28.80;99.90;;;;;;21148931;28;20223;-73
2022/06/14 11:10:48;;;;;;;0.20;0.00;;;29.10;99.90;;;;;;21138213;28;20255;-73
2022/06/14 11:21:00;;;;;;;0.20;0.00;;;29.40;99.90;;;;;;21132931;28;20247;-73
2022/06/14 11:31:13;;;;;;;0.20;0.00;;;29.90;99.90;;;;;;21129834;28;20188;-73
2022/06/14 11:41:21;;;;;;;0.20;0.00;;;29.80;99.90;;;;;;21185983;28;20292;-72
2022/06/14 11:51:34;;;;;;;0.20;0.00;;;29.80;99.90;;;;;;21214308;28;20707;-70
2022/06/14 12:01:47;;;;;;;0.20;0.00;;;30.90;99.90;;;;;;21214589;28;20290;-72
2022/06/14 12:11:56;;;;;;;0.20;0.00;;;30.50;99.90;;;;;;21214898;28;20206;-71
2022/06/14 12:32:34;;;;;;;0.20;0.00;;;32.00;99.90;;;;;;21209900;28;20192;-74
2022/06/14 12:42:43;;;;;;;0.20;0.00;;;30.30;99.90;;;;;;21127373;28;20222;-71
2022/06/14 12:52:53;;;;;;;0.20;0.00;;;32.30;99.90;;;;;;21128009;28;20223;-72
2022/06/14 13:03:02;;;;;;;0.20;0.00;;;30.60;99.90;;;;;;21125941;28;20299;-70
2022/06/14 13:13:48;;;;;;;0.20;0.00;;;32.10;99.90;;;;;;21135012;28;20196;-71
2022/06/14 13:24:02;;;;;;;0.20;0.00;;;32.40;99.90;;;;;;21126450;28;20239;-72
2022/06/14 13:34:21;;;;;;;0.20;0.00;;;33.10;99.90;;;;;;21139632;28;20223;-71
2022/06/14 13:44:40;;;;;;;0.20;0.00;;;32.40;99.90;;;;;;21140882;28;20212;-72
2022/06/14 13:54:52;;;;;;;0.20;0.00;;;32.50;99.90;;;;;;21137979;28;20362;-72
2022/06/14 14:05:01;;;;;;;0.20;0.00;;;31.80;99.90;;;;;;21137444;28;20235;-71
2022/06/14 14:15:21;;;;;;;0.20;0.00;;;32.80;99.90;;;;;;21134542;28;20215;-71
2022/06/14 14:25:33;;;;;;;0.20;0.00;;;32.50;99.90;;;;;;21133669;28;20230;-71
2022/06/14 14:35:42;;;;;;;0.20;0.00;;;31.00;99.90;;;;;;21132200;28;20253;-71
2022/06/14 14:45:49;;;;;;;0.20;0.00;;;31.60;99.90;;;;;;21131544;28;20196;-71
2022/06/14 14:56:03;;;;;;;0.20;0.00;;;30.00;99.90;;;;;;21134102;28;20259;-74
2022/06/14 15:06:13;;;;;;;0.20;0.00;;;30.10;99.90;;;;;;21131162;28;20255;-72
2022/06/14 15:16:25;;;;;;;0.20;0.00;;;31.20;99.90;;;;;;21129484;28;20289;-72
2022/06/14 15:26:30;;;;;;;0.20;0.00;;;29.80;99.90;;;;;;21129476;28;20203;-71
2022/06/14 15:36:40;;;;;;;0.20;0.08;;;28.20;99.90;;;;;;21123131;28;20216;-71
2022/06/14 15:46:50;;;;;;;0.20;0.10;;;29.20;99.90;;;;;;21195180;28;20263;-71
2022/06/14 15:57:00;;;;;;;0.20;0.00;;;27.70;99.90;;;;;;21213268;28;20249;-71
2022/06/14 16:07:07;;;;;;;0.20;0.10;;;27.70;99.90;;;;;;21212121;28;20296;-69
2022/06/14 16:17:21;;;;;;;0.20;0.00;;;29.50;99.90;;;;;;21207323;28;20294;-73
2022/06/14 16:27:42;;;;;;;0.20;0.00;;;29.00;99.90;;;;;;21210684;28;20205;-73
2022/06/14 16:37:53;;;;;;;0.20;0.00;;;27.50;99.90;;;;;;21138129;28;20235;-71
2022/06/14 16:48:04;;;;;;;0.20;0.00;;;27.30;99.90;;;;;;21123984;28;20218;-73
2022/06/14 16:58:19;;;;;;;0.20;0.00;;;27.90;99.90;;;;;;21123075;28;20241;-71
2022/06/14 17:08:33;;;;;;;0.20;0.00;;;28.20;99.90;;;;;;21123137;28;20238;-72
2022/06/14 17:18:44;;;;;;;0.20;0.00;;;27.70;99.90;;;;;;21122307;28;20223;-72
2022/06/14 17:39:24;;;;;;;0.20;0.00;;;26.80;99.90;;;;;;21120329;28;20231;-73
2022/06/14 17:49:37;;;;;;;0.20;0.00;;;27.10;99.90;;;;;;21121269;28;20214;-70
2022/06/14 17:59:57;;;;;;;0.20;0.10;;;27.00;99.90;;;;;;21131276;28;20361;-71
2022/06/14 18:10:04;;;;;;;0.20;0.10;;;26.90;99.90;;;;;;21136832;28;20216;-73
2022/06/14 18:30:41;;;;;;;0.20;0.00;;;27.00;99.90;;;;;;21133148;28;20253;-74
2022/06/14 18:40:46;;;;;;;0.20;0.00;;;27.20;99.90;;;;;;21132672;28;20225;-76
2022/06/14 18:50:56;;;;;;;0.20;0.00;;;26.80;99.90;;;;;;21138658;28;20196;-74
2022/06/14 19:01:23;;;;;;;0.20;0.00;;;26.50;99.90;;;;;;21133753;28;20242;-73
2022/06/14 19:11:48;;;;;;;0.20;0.10;;;26.40;99.90;;;;;;21133644;28;20199;-72
2022/06/14 19:22:22;;;;;;;0.20;0.00;;;26.50;99.90;;;;;;21133980;28;20219;-72
2022/06/14 19:32:32;;;;;;;0.20;0.00;;;26.40;99.90;;;;;;21130515;28;20707;-71
2022/06/14 19:42:42;;;;;;;0.20;0.00;;;26.00;99.90;;;;;;21131903;28;20286;-73
2022/06/14 19:52:48;;;;;;;0.20;0.00;;;25.80;99.90;;;;;;21132523;28;20218;-71
2022/06/14 20:02:53;;;;;;;0.20;0.00;;;26.10;99.90;;;;;;21128205;28;20300;-74
2022/06/14 20:12:57;;;;;;;0.20;0.00;;;25.60;99.90;;;;;;21170528;28;20275;-73
2022/06/14 20:23:03;;;;;;;0.20;0.00;;;25.40;99.90;;;;;;21213298;28;20283;-73
2022/06/14 20:33:20;;;;;;;0.20;0.00;;;25.30;99.90;;;;;;21199303;28;20192;-73
2022/06/14 20:43:27;;;;;;;0.20;0.10;;;25.10;99.90;;;;;;21111745;28;20224;-73
2022/06/14 20:53:34;;;;;;;0.20;0.00;;;24.80;99.90;;;;;;21128925;28;20184;-73
2022/06/14 21:03:43;;;;;;;0.20;0.00;;;24.80;99.90;;;;;;21171028;28;20242;-72
2022/06/14 21:13:53;;;;;;;0.20;0.00;;;26.70;99.90;;;;;;21206200;28;20199;-73
2022/06/14 21:23:59;;;;;;;0.20;0.00;;;27.60;99.90;;;;;;21211866;28;20257;-74
2022/06/14 21:34:08;;;;;;;0.20;0.00;;;27.80;99.90;;;;;;21201405;28;20276;-72
2022/06/14 21:44:14;;;;;;;0.20;0.00;;;27.40;99.90;;;;;;21189104;28;20310;-74
2022/06/14 21:54:20;;;;;;;0.20;0.10;;;27.50;99.90;;;;;;21225189;28;20198;-73
2022/06/14 22:04:27;;;;;;;0.20;0.00;;;27.30;99.90;;;;;;21209292;28;20302;-73
2022/06/14 22:14:36;;;;;;;0.20;0.10;;;27.30;99.90;;;;;;21224454;28;20220;-73
2022/06/14 22:24:42;;;;;;;0.20;0.10;;;26.90;99.90;;;;;;21224780;28;20223;-73
2022/06/14 22:34:50;;;;;;;0.20;0.00;;;27.60;99.90;;;;;;21200235;28;20222;-74
2022/06/14 22:44:57;;;;;;;0.52;0.52;;;27.40;99.90;;;;;;21139775;28;20192;-75
2022/06/14 22:55:01;;;;;;;0.20;0.00;;;26.40;99.90;;;;;;21180413;28;20256;-75
2022/06/14 23:05:07;;;;;;;0.20;0.00;;;25.30;99.90;;;;;;21179385;28;20242;-75
2022/06/14 23:15:11;;;;;;;0.20;0.00;;;26.20;99.90;;;;;;21135995;28;20232;-76
2022/06/14 23:25:17;;;;;;;0.20;0.00;;;26.30;99.90;;;;;;21134983;28;20252;-74
2022/06/14 23:35:20;;;;;;;0.20;0.00;;;26.60;99.90;;;;;;21133578;28;20208;-77
2022/06/14 23:45:25;;;;;;;0.20;0.00;;;26.70;99.90;;;;;;21137661;28;20283;-74
2022/06/14 23:55:29;;;;;;;0.20;0.00;;;26.50;99.90;;;;;;21135329;28;20228;-75
